createdAt,value
2022-12-06T00:00:07.839Z,92
2022-12-06T00:01:09.398Z,86
2022-12-06T00:02:11.347Z,88
2022-12-06T00:03:13.328Z,88
2022-12-06T00:04:15.239Z,90
2022-12-06T00:05:17.226Z,90
2022-12-06T00:06:18.159Z,94
2022-12-06T00:07:19.244Z,95
2022-12-06T00:08:21.344Z,92
2022-12-06T00:09:23.320Z,92
2022-12-06T00:10:25.217Z,91
2022-12-06T00:11:27.278Z,90
2022-12-06T00:12:29.280Z,91
2022-12-06T00:13:31.157Z,90
2022-12-06T00:14:32.294Z,93
2022-12-06T00:15:34.181Z,95
2022-12-06T00:16:35.239Z,96
2022-12-06T00:17:40.125Z,99
2022-12-06T00:18:38.185Z,100
2022-12-06T00:19:39.259Z,103
2022-12-06T00:20:41.277Z,97
2022-12-06T00:21:43.197Z,96
2022-12-06T00:22:45.779Z,97
2022-12-06T00:23:47.158Z,96
2022-12-06T00:24:48.297Z,99
2022-12-06T00:25:50.578Z,102
2022-12-06T00:26:52.253Z,96
2022-12-06T00:27:54.138Z,95
2022-12-06T00:28:55.256Z,94
2022-12-06T00:29:57.561Z,94
2022-12-06T00:30:58.198Z,96
2022-12-06T00:31:59.240Z,96
2022-12-06T00:33:01.346Z,99
2022-12-06T00:34:03.229Z,97
2022-12-06T00:35:04.258Z,95
2022-12-06T00:36:05.444Z,96
2022-12-06T00:37:07.197Z,96
2022-12-06T00:38:08.241Z,95
2022-12-06T00:39:09.238Z,96
2022-12-06T00:40:11.197Z,96
2022-12-06T00:41:12.184Z,100
2022-12-06T00:42:13.241Z,102
2022-12-06T00:43:15.200Z,104
2022-12-06T00:44:16.205Z,104
2022-12-06T00:45:17.291Z,107
2022-12-06T00:46:19.213Z,110
2022-12-06T00:47:20.157Z,107
2022-12-06T00:48:21.239Z,104
2022-12-06T00:49:22.277Z,104
2022-12-06T00:50:24.299Z,104
2022-12-06T00:51:26.258Z,103
2022-12-06T00:52:28.239Z,102
2022-12-06T00:53:29.198Z,100
2022-12-06T00:54:30.218Z,100
2022-12-06T00:55:31.184Z,100
2022-12-06T00:56:32.223Z,97
2022-12-06T00:57:33.197Z,100
2022-12-06T00:58:34.197Z,100
2022-12-06T00:59:35.347Z,100
2022-12-06T01:00:37.344Z,101
2022-12-06T01:01:39.374Z,101
2022-12-06T01:02:41.354Z,100
2022-12-06T01:03:43.506Z,101
2022-12-06T01:04:45.417Z,104
2022-12-06T01:05:47.308Z,104
2022-12-06T01:06:49.261Z,103
2022-12-06T01:07:50.258Z,103
2022-12-06T01:08:52.259Z,102
2022-12-06T01:09:55.578Z,99
2022-12-06T01:10:57.386Z,97
2022-12-06T01:11:59.318Z,95
2022-12-06T01:13:01.316Z,100
2022-12-06T01:14:03.275Z,101
2022-12-06T01:15:04.338Z,102
2022-12-06T01:16:06.300Z,101
2022-12-06T01:17:08.365Z,99
2022-12-06T01:18:10.358Z,100
2022-12-06T01:19:12.557Z,101
2022-12-06T01:20:14.196Z,101
2022-12-06T01:21:15.239Z,105
2022-12-06T01:22:16.168Z,106
2022-12-06T01:23:17.184Z,106
2022-12-06T01:24:18.786Z,103
2022-12-06T01:25:23.185Z,104
2022-12-06T01:26:22.177Z,102
2022-12-06T01:27:23.259Z,100
2022-12-06T01:28:24.213Z,99
2022-12-06T01:29:25.259Z,96
2022-12-06T01:30:26.300Z,97
2022-12-06T01:31:30.787Z,100
2022-12-06T01:32:29.223Z,99
2022-12-06T01:33:30.298Z,103
2022-12-06T01:34:31.305Z,112
2022-12-06T01:35:33.238Z,107
2022-12-06T01:36:34.303Z,106
2022-12-06T01:37:36.218Z,103
2022-12-06T01:38:37.197Z,101
2022-12-06T01:39:38.397Z,102
2022-12-06T01:40:40.258Z,103
2022-12-06T01:41:41.239Z,102
2022-12-06T01:42:42.200Z,107
2022-12-06T01:43:43.285Z,110
2022-12-06T01:44:44.246Z,107
2022-12-06T01:45:45.334Z,101
2022-12-06T01:46:47.286Z,100
2022-12-06T01:47:48.198Z,100
2022-12-06T01:48:49.198Z,101
2022-12-06T01:49:50.257Z,101
2022-12-06T01:50:51.197Z,101
2022-12-06T01:51:52.237Z,104
2022-12-06T01:52:53.250Z,101
2022-12-06T01:53:54.206Z,96
2022-12-06T01:54:55.260Z,95
2022-12-06T01:55:56.297Z,95
2022-12-06T01:56:58.380Z,94
2022-12-06T01:58:00.322Z,95
2022-12-06T01:59:02.277Z,93
2022-12-06T02:00:04.369Z,91
2022-12-06T02:01:06.379Z,90
2022-12-06T02:02:08.406Z,91
2022-12-06T02:03:10.318Z,93
2022-12-06T02:07:00.583Z,94
2022-12-06T02:08:02.410Z,93
2022-12-06T02:09:04.270Z,96
2022-12-06T02:10:05.691Z,96
2022-12-06T02:11:07.362Z,99
2022-12-06T02:12:09.292Z,101
2022-12-06T02:13:10.331Z,107
2022-12-06T02:14:12.339Z,107
2022-12-06T02:15:14.433Z,107
2022-12-06T02:16:16.357Z,111
2022-12-06T02:17:17.587Z,110
2022-12-06T02:18:19.400Z,108
2022-12-06T02:19:21.293Z,111
2022-12-06T02:20:22.271Z,111
2022-12-06T02:21:23.320Z,110
2022-12-06T02:22:25.391Z,115
2022-12-06T02:23:27.372Z,115
2022-12-06T02:24:29.256Z,110
2022-12-06T02:25:33.757Z,107
2022-12-06T02:26:32.152Z,105
2022-12-06T02:27:33.264Z,114
2022-12-06T02:28:35.300Z,110
2022-12-06T02:29:37.411Z,106
2022-12-06T02:30:40.541Z,106
2022-12-06T02:31:42.682Z,106
2022-12-06T02:32:44.386Z,107
2022-12-06T02:33:46.231Z,107
2022-12-06T02:34:47.644Z,108
2022-12-06T02:35:49.404Z,110
2022-12-06T02:36:51.371Z,110
2022-12-06T02:37:53.411Z,110
2022-12-06T02:38:55.412Z,108
2022-12-06T02:39:57.653Z,108
2022-12-06T02:40:59.254Z,107
2022-12-06T02:42:00.451Z,104
2022-12-06T02:43:02.551Z,107
2022-12-06T02:44:04.353Z,111
2022-12-06T02:45:06.840Z,106
2022-12-06T02:46:08.446Z,108
2022-12-06T02:47:10.352Z,108
2022-12-06T02:48:12.301Z,114
2022-12-06T02:49:14.324Z,113
2022-12-06T02:50:16.312Z,112
2022-12-06T02:51:18.552Z,110
2022-12-06T02:52:20.436Z,108
2022-12-06T02:53:22.450Z,110
2022-12-06T02:54:24.461Z,110
2022-12-06T02:55:26.398Z,108
2022-12-06T02:56:28.255Z,109
2022-12-06T02:57:29.392Z,108
2022-12-06T02:58:31.652Z,107
2022-12-06T02:59:33.352Z,106
2022-12-06T03:00:35.757Z,107
2022-12-06T03:01:37.444Z,108
2022-12-06T03:02:39.835Z,108
2022-12-06T03:03:41.657Z,111
2022-12-06T03:04:43.412Z,108
2022-12-06T03:05:45.311Z,108
2022-12-06T03:06:46.351Z,106
2022-12-06T03:07:48.646Z,108
2022-12-06T03:08:50.216Z,110
2022-12-06T03:09:52.410Z,109
2022-12-06T03:10:54.374Z,107
2022-12-06T03:11:56.396Z,105
2022-12-06T03:12:58.412Z,103
2022-12-06T03:14:00.364Z,105
2022-12-06T03:15:02.777Z,104
2022-12-06T03:16:04.638Z,103
2022-12-06T03:17:06.332Z,104
2022-12-06T03:18:08.512Z,105
2022-12-06T03:19:10.317Z,107
2022-12-06T03:20:12.520Z,107
2022-12-06T03:21:14.462Z,108
2022-12-06T03:22:16.420Z,107
2022-12-06T03:23:18.252Z,106
2022-12-06T03:24:19.320Z,108
2022-12-06T03:25:21.332Z,105
2022-12-06T03:26:23.415Z,105
2022-12-06T03:27:25.412Z,104
2022-12-06T03:28:27.411Z,103
2022-12-06T03:29:29.591Z,102
2022-12-06T03:30:31.480Z,105
2022-12-06T03:31:33.420Z,107
2022-12-06T03:32:35.418Z,105
2022-12-06T03:33:37.333Z,105
2022-12-06T03:34:39.405Z,108
2022-12-06T03:35:41.400Z,112
2022-12-06T03:36:43.472Z,115
2022-12-06T03:37:45.376Z,115
2022-12-06T03:38:47.312Z,112
2022-12-06T03:39:48.338Z,107
2022-12-06T03:40:49.298Z,105
2022-12-06T03:41:50.372Z,101
2022-12-06T03:42:52.332Z,100
2022-12-06T03:43:54.388Z,99
2022-12-06T03:44:56.294Z,100
2022-12-06T03:45:57.374Z,100
2022-12-06T03:46:58.425Z,101
2022-12-06T03:47:59.274Z,101
2022-12-06T03:49:00.392Z,100
2022-12-06T03:50:02.624Z,100
2022-12-06T03:51:04.346Z,102
2022-12-06T03:52:06.333Z,103
2022-12-06T03:53:08.367Z,104
2022-12-06T03:54:10.495Z,103
2022-12-06T03:55:12.416Z,102
2022-12-06T03:56:14.461Z,102
2022-12-06T03:57:16.613Z,102
2022-12-06T03:58:18.331Z,103
2022-12-06T03:59:19.372Z,103
2022-12-06T04:00:21.413Z,102
2022-12-06T04:01:23.598Z,101
2022-12-06T04:02:25.251Z,100
2022-12-06T04:03:26.383Z,99
2022-12-06T04:04:28.345Z,99
2022-12-06T04:05:29.347Z,96
2022-12-06T04:06:30.213Z,96
2022-12-06T04:07:32.226Z,97
2022-12-06T04:08:33.436Z,100
2022-12-06T04:09:35.413Z,100
2022-12-06T04:10:37.416Z,100
2022-12-06T04:11:39.302Z,103
2022-12-06T04:12:40.412Z,102
2022-12-06T04:13:42.439Z,102
2022-12-06T04:14:44.431Z,103
2022-12-06T04:15:46.512Z,104
2022-12-06T04:16:48.474Z,105
2022-12-06T04:17:50.719Z,105
2022-12-06T04:18:52.412Z,103
2022-12-06T04:19:54.295Z,103
2022-12-06T04:20:55.597Z,101
2022-12-06T04:21:57.600Z,100
2022-12-06T04:22:59.309Z,99
2022-12-06T04:24:00.379Z,99
2022-12-06T04:25:02.241Z,99
2022-12-06T04:26:03.393Z,99
2022-12-06T04:27:05.692Z,100
2022-12-06T04:28:07.393Z,100
2022-12-06T04:29:09.417Z,104
2022-12-06T04:30:11.292Z,105
2022-12-06T04:31:17.159Z,110
2022-12-06T04:32:15.253Z,107
2022-12-06T04:33:16.312Z,108
2022-12-06T04:34:17.374Z,110
2022-12-06T04:35:18.316Z,108
2022-12-06T04:36:19.379Z,105
2022-12-06T04:37:20.312Z,110
2022-12-06T04:38:21.257Z,107
2022-12-06T04:39:22.276Z,106
2022-12-06T04:40:23.271Z,106
2022-12-06T04:41:24.331Z,107
2022-12-06T04:42:25.348Z,107
2022-12-06T04:43:26.255Z,106
2022-12-06T04:44:27.352Z,104
2022-12-06T04:45:28.271Z,107
2022-12-06T04:46:29.358Z,108
2022-12-06T04:47:31.332Z,111
2022-12-06T04:48:32.352Z,114
2022-12-06T04:49:34.312Z,115
2022-12-06T04:50:35.274Z,113
2022-12-06T04:51:36.467Z,114
2022-12-06T04:52:37.376Z,114
2022-12-06T04:53:39.242Z,117
2022-12-06T04:54:40.320Z,122
2022-12-06T04:55:41.466Z,126
2022-12-06T04:56:43.379Z,129
2022-12-06T04:57:45.384Z,126
2022-12-06T04:58:47.391Z,122
2022-12-06T04:59:49.455Z,118
2022-12-06T05:00:51.494Z,108
2022-12-06T05:01:53.400Z,108
2022-12-06T05:02:55.414Z,115
2022-12-06T05:03:57.473Z,112
2022-12-06T05:04:59.354Z,111
2022-12-06T05:06:00.395Z,111
2022-12-06T05:07:02.425Z,110
2022-12-06T05:08:04.410Z,111
2022-12-06T05:09:05.772Z,127
2022-12-06T05:10:07.491Z,135
2022-12-06T05:11:09.293Z,132
2022-12-06T05:12:10.352Z,129
2022-12-06T05:13:11.320Z,131
2022-12-06T05:14:12.512Z,138
2022-12-06T05:15:15.946Z,143
2022-12-06T05:16:16.510Z,147
2022-12-06T05:17:18.386Z,150
2022-12-06T05:18:20.332Z,151
2022-12-06T05:19:21.413Z,146
2022-12-06T05:20:23.333Z,141
2022-12-06T05:21:24.272Z,134
2022-12-06T05:22:25.375Z,130
2022-12-06T05:23:26.372Z,128
2022-12-06T05:24:28.780Z,132
2022-12-06T05:25:30.551Z,124
2022-12-06T05:26:32.332Z,126
2022-12-06T05:27:36.056Z,127
2022-12-06T05:28:35.353Z,124
2022-12-06T05:29:36.316Z,121
2022-12-06T05:30:37.313Z,122
2022-12-06T05:31:38.381Z,124
2022-12-06T05:32:39.372Z,118
2022-12-06T05:33:41.393Z,121
2022-12-06T05:34:43.451Z,117
2022-12-06T05:35:45.259Z,117
2022-12-06T05:36:46.355Z,116
2022-12-06T05:37:47.297Z,128
2022-12-06T05:38:51.243Z,996
2022-12-06T05:39:50.333Z,133
2022-12-06T05:40:51.402Z,123
2022-12-06T05:41:52.360Z,123
2022-12-06T05:42:53.352Z,125
2022-12-06T05:43:55.405Z,122
2022-12-06T05:44:57.386Z,122
2022-12-06T05:45:59.479Z,116
2022-12-06T05:47:02.353Z,114
2022-12-06T05:48:04.331Z,119
2022-12-06T05:49:05.913Z,112
2022-12-06T05:50:07.415Z,110
2022-12-06T05:51:09.350Z,103
2022-12-06T05:52:11.356Z,110
2022-12-06T05:53:13.505Z,107
2022-12-06T05:54:15.532Z,102
2022-12-06T05:55:17.676Z,103
2022-12-06T05:56:19.361Z,94
2022-12-06T05:57:20.345Z,92
2022-12-06T05:58:21.392Z,93
2022-12-06T05:59:22.360Z,84
2022-12-06T06:00:23.359Z,90
2022-12-06T06:01:24.292Z,86
2022-12-06T06:02:25.480Z,85
2022-12-06T06:03:26.908Z,79
2022-12-06T06:04:28.405Z,74
2022-12-06T06:05:30.352Z,74
2022-12-06T06:06:31.800Z,71
2022-12-06T06:07:33.612Z,69
2022-12-06T06:08:35.427Z,69
2022-12-06T06:09:36.387Z,67
2022-12-06T06:10:38.442Z,66
2022-12-06T06:11:40.331Z,64
2022-12-06T06:12:41.792Z,63
2022-12-06T06:13:43.454Z,63
2022-12-06T06:14:45.480Z,60
2022-12-06T06:15:47.334Z,59
2022-12-06T06:16:49.402Z,59
2022-12-06T06:17:51.086Z,60
2022-12-06T06:18:52.472Z,58
2022-12-06T06:19:54.415Z,59
2022-12-06T06:20:56.392Z,58
2022-12-06T06:21:58.302Z,57
2022-12-06T06:22:59.892Z,55
2022-12-06T06:24:01.491Z,56
2022-12-06T06:25:03.432Z,53
2022-12-06T06:26:06.052Z,55
2022-12-06T06:27:07.476Z,53
2022-12-06T06:28:09.351Z,55
2022-12-06T06:29:10.432Z,51
2022-12-06T06:30:12.376Z,46
2022-12-06T06:31:14.372Z,45
2022-12-06T06:32:16.576Z,49
2022-12-06T06:33:18.512Z,49
2022-12-06T06:34:20.400Z,50
2022-12-06T06:35:22.448Z,49
2022-12-06T06:36:24.392Z,44
2022-12-06T06:37:25.364Z,44
2022-12-06T06:38:27.499Z,42
2022-12-06T06:39:29.415Z,36
2022-12-06T06:40:31.460Z,35
2022-12-06T06:41:33.425Z,34
2022-12-06T06:42:34.375Z,34
2022-12-06T06:43:35.420Z,37
2022-12-06T06:44:36.410Z,40
2022-12-06T06:45:37.436Z,40
2022-12-06T06:46:38.318Z,40
2022-12-06T06:47:39.652Z,41
2022-12-06T06:48:42.232Z,40
2022-12-06T06:49:44.193Z,36
2022-12-06T06:50:45.353Z,35
2022-12-06T06:51:46.412Z,35
2022-12-06T06:52:48.408Z,35
2022-12-06T06:53:50.612Z,35
2022-12-06T06:54:52.606Z,35
2022-12-06T06:55:54.580Z,36
2022-12-06T06:56:56.491Z,37
2022-12-06T06:57:58.392Z,39
2022-12-06T06:58:59.372Z,39
2022-12-06T07:00:00.706Z,40
2022-12-06T07:01:01.642Z,37
2022-12-06T07:02:04.207Z,37
2022-12-06T07:03:05.946Z,37
2022-12-06T07:04:07.376Z,37
2022-12-06T07:05:08.432Z,37
2022-12-06T07:06:10.443Z,37
2022-12-06T07:07:14.303Z,37
2022-12-06T07:08:13.425Z,37
2022-12-06T07:09:15.432Z,37
2022-12-06T07:10:16.454Z,37
2022-12-06T07:11:18.452Z,37
2022-12-06T07:12:20.426Z,38
2022-12-06T07:13:22.491Z,38
2022-12-06T07:14:24.351Z,38
2022-12-06T07:15:25.376Z,38
2022-12-06T07:16:27.625Z,38
2022-12-06T07:17:29.353Z,39
2022-12-06T07:18:30.437Z,39
2022-12-06T07:19:32.371Z,38
2022-12-06T07:20:33.424Z,37
2022-12-06T07:21:35.712Z,36
2022-12-06T07:22:37.414Z,36
2022-12-06T07:23:38.412Z,35
2022-12-06T07:24:42.282Z,34
2022-12-06T07:25:41.439Z,33
2022-12-06T07:26:42.444Z,33
2022-12-06T07:27:43.392Z,34
2022-12-06T07:28:44.460Z,34
2022-12-06T07:29:46.439Z,34
2022-12-06T07:30:47.465Z,33
2022-12-06T07:31:48.412Z,33
2022-12-06T07:32:49.393Z,33
2022-12-06T07:33:50.371Z,31
2022-12-06T07:34:51.426Z,33
2022-12-06T07:36:55.371Z,33
2022-12-06T07:37:56.912Z,34
2022-12-06T07:38:58.459Z,35
2022-12-06T07:40:00.781Z,37
2022-12-06T07:41:05.265Z,36
2022-12-06T07:42:03.433Z,35
2022-12-06T07:43:04.372Z,36
2022-12-06T07:44:06.063Z,35
2022-12-06T07:45:07.672Z,35
2022-12-06T07:46:09.461Z,35
2022-12-06T07:47:10.417Z,36
2022-12-06T07:48:11.513Z,35
2022-12-06T07:49:13.456Z,34
2022-12-06T07:50:18.051Z,34
2022-12-06T07:51:17.472Z,33
2022-12-06T07:52:19.362Z,33
2022-12-06T07:53:20.319Z,31
2022-12-06T07:54:21.471Z,31
2022-12-06T07:55:23.472Z,31
2022-12-06T07:56:24.464Z,30
2022-12-06T07:57:26.457Z,30
2022-12-06T07:58:28.453Z,30
2022-12-06T07:59:30.452Z,30
2022-12-06T08:00:31.412Z,30
2022-12-06T08:01:32.481Z,30
2022-12-06T08:02:33.513Z,29
2022-12-06T08:03:35.385Z,30
2022-12-06T08:04:36.485Z,29
2022-12-06T08:05:38.432Z,29
2022-12-06T08:06:39.392Z,28
2022-12-06T08:07:40.744Z,28
2022-12-06T08:08:42.472Z,28
2022-12-06T08:09:44.384Z,29
2022-12-06T08:10:45.453Z,29
2022-12-06T08:11:46.561Z,31
2022-12-06T08:12:48.523Z,30
2022-12-06T08:13:50.473Z,30
2022-12-06T08:14:56.696Z,29
2022-12-06T08:15:54.687Z,29
2022-12-06T08:16:56.412Z,29
2022-12-06T08:17:57.459Z,29
2022-12-06T08:18:58.435Z,29
2022-12-06T08:19:59.776Z,29
2022-12-06T08:21:01.753Z,30
2022-12-06T08:22:03.773Z,30
2022-12-06T08:23:05.371Z,31
2022-12-06T08:24:06.452Z,31
2022-12-06T08:25:07.559Z,31
2022-12-06T08:26:09.415Z,31
2022-12-06T08:27:10.517Z,30
2022-12-06T08:28:11.536Z,30
2022-12-06T08:29:13.483Z,30
2022-12-06T08:30:15.522Z,29
2022-12-06T08:31:17.480Z,30
2022-12-06T08:32:19.420Z,30
2022-12-06T08:33:20.398Z,29
2022-12-06T08:34:21.435Z,29
2022-12-06T08:35:23.480Z,29
2022-12-06T08:36:24.413Z,29
2022-12-06T08:37:25.532Z,29
2022-12-06T08:38:27.852Z,28
2022-12-06T08:39:29.633Z,29
2022-12-06T08:40:31.595Z,29
2022-12-06T08:41:33.525Z,29
2022-12-06T08:42:35.508Z,29
2022-12-06T08:43:37.453Z,29
2022-12-06T08:44:38.453Z,30
2022-12-06T08:45:39.440Z,29
2022-12-06T08:46:40.428Z,30
2022-12-06T08:47:41.454Z,29
2022-12-06T08:48:43.486Z,30
2022-12-06T08:49:43.452Z,30
2022-12-06T08:50:44.453Z,30
2022-12-06T08:51:45.381Z,29
2022-12-06T08:52:46.892Z,29
2022-12-06T08:53:48.783Z,30
2022-12-06T08:54:50.878Z,30
2022-12-06T08:55:55.044Z,30
2022-12-06T08:56:54.491Z,29
2022-12-06T08:57:55.516Z,30
2022-12-06T08:58:56.622Z,29
2022-12-06T08:59:58.842Z,29
2022-12-06T09:01:00.594Z,28
2022-12-06T09:02:02.964Z,28
2022-12-06T09:03:04.593Z,28
2022-12-06T09:04:06.646Z,28
2022-12-06T09:05:08.602Z,27
2022-12-06T09:06:10.479Z,27
2022-12-06T09:07:12.096Z,26
2022-12-06T09:08:13.091Z,27
2022-12-06T09:09:14.475Z,28
2022-12-06T09:10:15.472Z,27
2022-12-06T09:11:16.474Z,27
2022-12-06T09:12:17.553Z,27
2022-12-06T09:13:19.482Z,27
2022-12-06T09:14:22.092Z,27
2022-12-06T09:15:22.549Z,28
2022-12-06T09:16:24.617Z,29
2022-12-06T09:17:25.661Z,29
2022-12-06T09:18:27.481Z,31
2022-12-06T09:19:28.579Z,32
2022-12-06T09:20:30.456Z,31
2022-12-06T09:21:31.672Z,33
2022-12-06T09:22:33.565Z,33
2022-12-06T09:23:36.415Z,34
2022-12-06T09:24:37.572Z,34
2022-12-06T09:25:39.473Z,34
2022-12-06T09:26:40.532Z,31
2022-12-06T09:27:42.532Z,32
2022-12-06T09:28:44.507Z,31
2022-12-06T09:29:45.434Z,30
2022-12-06T09:30:46.541Z,30
2022-12-06T09:31:48.947Z,29
2022-12-06T09:32:50.563Z,29
2022-12-06T09:33:52.474Z,29
2022-12-06T09:34:54.452Z,28
2022-12-06T09:35:55.552Z,29
2022-12-06T09:36:57.592Z,29
2022-12-06T09:37:59.533Z,30
2022-12-06T09:39:01.600Z,30
2022-12-06T09:40:03.808Z,31
2022-12-06T09:41:05.452Z,31
2022-12-06T09:42:06.631Z,30
2022-12-06T09:43:08.472Z,30
2022-12-06T09:44:09.518Z,30
2022-12-06T09:45:11.541Z,30
2022-12-06T09:46:13.542Z,31
2022-12-06T09:47:14.545Z,33
2022-12-06T09:48:16.536Z,34
2022-12-06T09:49:18.514Z,34
2022-12-06T09:50:20.496Z,34
2022-12-06T09:51:23.165Z,35
2022-12-06T09:52:24.485Z,36
2022-12-06T09:53:25.366Z,36
2022-12-06T09:54:26.472Z,36
2022-12-06T09:55:27.632Z,35
2022-12-06T09:56:29.432Z,36
2022-12-06T09:57:30.461Z,36
2022-12-06T09:58:31.460Z,36
2022-12-06T09:59:32.565Z,37
2022-12-06T10:00:34.499Z,37
2022-12-06T10:01:36.587Z,38
2022-12-06T10:02:38.566Z,37
2022-12-06T10:03:39.632Z,36
2022-12-06T10:04:41.572Z,35
2022-12-06T10:05:45.947Z,35
2022-12-06T10:06:45.554Z,34
2022-12-06T10:07:47.542Z,34
2022-12-06T10:08:48.642Z,34
2022-12-06T10:09:49.480Z,31
2022-12-06T10:10:50.476Z,31
2022-12-06T10:11:51.572Z,31
2022-12-06T10:12:53.451Z,31
2022-12-06T10:13:54.520Z,33
2022-12-06T10:14:55.636Z,33
2022-12-06T10:15:57.652Z,34
2022-12-06T10:16:59.514Z,34
2022-12-06T10:18:01.530Z,33
2022-12-06T10:19:03.553Z,33
2022-12-06T10:20:05.839Z,33
2022-12-06T10:21:07.453Z,33
2022-12-06T10:22:08.586Z,33
2022-12-06T10:23:10.574Z,33
2022-12-06T10:24:12.491Z,34
2022-12-06T10:25:13.551Z,34
2022-12-06T10:26:15.632Z,34
2022-12-06T10:27:17.582Z,34
2022-12-06T10:28:19.780Z,34
2022-12-06T10:29:27.509Z,35
2022-12-06T10:30:23.696Z,35
2022-12-06T10:31:25.535Z,36
2022-12-06T10:32:26.805Z,37
2022-12-06T10:33:28.642Z,37
2022-12-06T10:34:30.619Z,37
2022-12-06T10:35:32.412Z,38
2022-12-06T10:36:33.711Z,38
2022-12-06T10:37:35.530Z,38
2022-12-06T10:38:37.572Z,39
2022-12-06T10:39:39.673Z,39
2022-12-06T10:40:41.592Z,39
2022-12-06T10:41:43.435Z,39
2022-12-06T10:42:44.574Z,41
2022-12-06T10:43:46.496Z,41
2022-12-06T10:44:47.831Z,41
2022-12-06T10:45:49.548Z,40
2022-12-06T10:46:50.578Z,40
2022-12-06T10:47:51.492Z,41
2022-12-06T10:48:52.512Z,42
2022-12-06T10:49:53.631Z,42
2022-12-06T10:50:55.491Z,42
2022-12-06T10:51:56.741Z,41
2022-12-06T10:53:01.799Z,40
2022-12-06T10:54:00.561Z,40
2022-12-06T10:55:02.656Z,39
2022-12-06T10:56:04.575Z,40
2022-12-06T10:57:06.565Z,39
2022-12-06T10:58:09.153Z,38
2022-12-06T10:59:10.451Z,39
2022-12-06T11:00:15.070Z,39
2022-12-06T11:01:13.875Z,38
2022-12-06T11:02:15.684Z,38
2022-12-06T11:03:17.591Z,38
2022-12-06T11:04:19.536Z,38
2022-12-06T11:05:20.602Z,38
2022-12-06T11:06:23.520Z,39
2022-12-06T11:07:25.621Z,38
2022-12-06T11:08:27.611Z,39
2022-12-06T11:09:29.653Z,39
2022-12-06T11:10:31.533Z,40
2022-12-06T11:11:32.553Z,40
2022-12-06T11:12:33.692Z,39
2022-12-06T11:13:35.932Z,39
2022-12-06T11:14:37.540Z,39
2022-12-06T11:15:38.537Z,37
2022-12-06T11:16:39.627Z,37
2022-12-06T11:17:41.531Z,37
2022-12-06T11:18:43.590Z,37
2022-12-06T11:19:45.512Z,36
2022-12-06T11:20:46.693Z,36
2022-12-06T11:21:48.592Z,35
2022-12-06T11:22:50.523Z,35
2022-12-06T11:23:51.508Z,35
2022-12-06T11:24:52.595Z,36
2022-12-06T11:25:54.593Z,36
2022-12-06T11:26:56.547Z,35
2022-12-06T11:27:57.673Z,35
2022-12-06T11:28:59.645Z,35
2022-12-06T11:30:01.869Z,36
2022-12-06T11:31:03.706Z,36
2022-12-06T11:32:05.612Z,36
2022-12-06T11:33:07.552Z,37
2022-12-06T11:34:09.599Z,36
2022-12-06T11:35:11.532Z,36
2022-12-06T11:36:12.599Z,36
2022-12-06T11:37:14.581Z,35
2022-12-06T11:38:16.605Z,35
2022-12-06T11:39:18.674Z,35
2022-12-06T11:40:20.633Z,34
2022-12-06T11:41:22.560Z,34
2022-12-06T11:42:23.511Z,33
2022-12-06T11:43:24.566Z,33
2022-12-06T11:44:27.171Z,33
2022-12-06T11:45:28.673Z,31
2022-12-06T11:46:30.761Z,31
2022-12-06T11:47:32.596Z,33
2022-12-06T11:48:34.628Z,33
2022-12-06T11:49:36.533Z,30
2022-12-06T11:50:37.653Z,30
2022-12-06T11:51:39.843Z,30
2022-12-06T11:52:41.651Z,30
2022-12-06T11:53:43.603Z,29
2022-12-06T11:54:45.571Z,29
2022-12-06T11:55:47.592Z,29
2022-12-06T11:56:49.553Z,29
2022-12-06T11:57:50.698Z,30
2022-12-06T11:58:52.560Z,30
2022-12-06T11:59:53.572Z,30
2022-12-06T12:00:54.673Z,30
2022-12-06T12:01:56.551Z,30
2022-12-06T12:02:59.081Z,30
2022-12-06T12:04:00.672Z,30
2022-12-06T12:05:02.775Z,30
2022-12-06T12:06:04.593Z,30
2022-12-06T12:07:06.617Z,30
2022-12-06T12:08:08.693Z,31
2022-12-06T12:09:10.554Z,31
2022-12-06T12:10:11.572Z,33
2022-12-06T12:11:12.542Z,34
2022-12-06T12:12:13.631Z,34
2022-12-06T12:13:15.492Z,34
2022-12-06T12:14:16.529Z,34
2022-12-06T12:15:17.632Z,34
2022-12-06T12:16:19.598Z,34
2022-12-06T12:17:20.581Z,34
2022-12-06T12:18:21.711Z,35
2022-12-06T12:19:23.571Z,33
2022-12-06T12:20:25.693Z,34
2022-12-06T12:21:27.569Z,34
2022-12-06T12:22:28.545Z,34
2022-12-06T12:23:30.235Z,35
2022-12-06T12:24:32.338Z,34
2022-12-06T12:25:34.016Z,35
2022-12-06T12:26:35.576Z,34
2022-12-06T12:27:36.813Z,34
2022-12-06T12:28:38.592Z,34
2022-12-06T12:29:40.674Z,34
2022-12-06T12:30:42.841Z,34
2022-12-06T12:31:44.627Z,34
2022-12-06T12:32:46.551Z,34
2022-12-06T12:33:47.581Z,34
2022-12-06T12:34:48.600Z,34
2022-12-06T12:35:50.572Z,34
2022-12-06T12:36:52.692Z,34
2022-12-06T12:37:54.653Z,34
2022-12-06T12:38:56.512Z,34
2022-12-06T12:39:57.537Z,34
2022-12-06T12:40:58.619Z,35
2022-12-06T12:42:00.571Z,35
2022-12-06T12:43:02.533Z,37
2022-12-06T12:45:05.932Z,36
2022-12-06T12:46:07.729Z,37
2022-12-06T12:47:09.473Z,37
2022-12-06T12:48:10.535Z,35
2022-12-06T12:49:11.628Z,35
2022-12-06T12:50:13.624Z,35
2022-12-06T12:51:15.532Z,34
2022-12-06T12:52:16.560Z,33
2022-12-06T12:53:17.513Z,31
2022-12-06T12:54:18.683Z,31
2022-12-06T12:55:20.633Z,31
2022-12-06T12:56:22.542Z,30
2022-12-06T12:57:23.582Z,30
2022-12-06T12:58:25.711Z,29
2022-12-06T12:59:27.986Z,29
2022-12-06T13:00:29.734Z,29
2022-12-06T13:01:31.666Z,29
2022-12-06T13:02:33.681Z,29
2022-12-06T13:03:50.518Z,29
2022-12-06T13:04:37.579Z,29
2022-12-06T13:05:45.196Z,30
2022-12-06T13:06:41.623Z,29
2022-12-06T13:07:43.639Z,29
2022-12-06T13:08:45.573Z,30
2022-12-06T13:09:47.563Z,29
2022-12-06T13:10:52.899Z,29
2022-12-06T13:11:51.674Z,30
2022-12-06T13:12:54.039Z,30
2022-12-06T13:13:55.640Z,31
2022-12-06T13:14:57.774Z,31
2022-12-06T13:15:59.676Z,31
2022-12-06T13:17:01.688Z,31
2022-12-06T13:18:03.654Z,29
2022-12-06T13:19:05.783Z,28
2022-12-06T13:20:07.630Z,28
2022-12-06T13:21:08.646Z,27
2022-12-06T13:22:10.580Z,27
2022-12-06T13:23:11.532Z,28
2022-12-06T13:24:12.554Z,28
2022-12-06T13:25:13.544Z,28
2022-12-06T13:26:14.643Z,28
2022-12-06T13:27:16.763Z,28
2022-12-06T13:28:18.735Z,28
2022-12-06T13:29:20.687Z,28
2022-12-06T13:30:22.685Z,28
2022-12-06T13:31:24.622Z,28
2022-12-06T13:32:25.618Z,28
2022-12-06T13:33:26.513Z,28
2022-12-06T13:34:27.642Z,28
2022-12-06T13:35:29.579Z,29
2022-12-06T13:36:31.591Z,28
2022-12-06T13:37:32.582Z,28
2022-12-06T13:38:33.551Z,28
2022-12-06T13:39:34.652Z,28
2022-12-06T13:40:36.691Z,28
2022-12-06T13:41:38.687Z,28
2022-12-06T13:42:40.713Z,27
2022-12-06T13:43:42.617Z,27
2022-12-06T13:44:44.598Z,27
2022-12-06T13:45:46.806Z,27
2022-12-06T13:46:48.846Z,26
2022-12-06T13:47:50.900Z,26
2022-12-06T13:48:52.635Z,26
2022-12-06T13:49:54.614Z,26
2022-12-06T13:50:55.533Z,26
2022-12-06T13:51:56.812Z,26
2022-12-06T13:52:58.747Z,27
2022-12-06T13:54:00.631Z,26
2022-12-06T13:55:02.698Z,26
2022-12-06T13:56:04.734Z,26
2022-12-06T13:57:06.573Z,26
2022-12-06T13:58:07.644Z,26
2022-12-06T13:59:09.912Z,26
2022-12-06T14:00:11.712Z,26
2022-12-06T14:01:13.752Z,26
2022-12-06T14:02:15.669Z,26
2022-12-06T14:03:17.773Z,26
2022-12-06T14:04:19.692Z,26
2022-12-06T14:05:21.638Z,26
2022-12-06T14:06:23.637Z,27
2022-12-06T14:07:25.692Z,27
2022-12-06T14:08:27.575Z,28
2022-12-06T14:09:28.671Z,28
2022-12-06T14:10:30.632Z,28
2022-12-06T14:11:36.701Z,28
2022-12-06T14:12:34.576Z,29
2022-12-06T14:13:35.613Z,28
2022-12-06T14:14:36.624Z,28
2022-12-06T14:15:38.663Z,28
2022-12-06T14:16:40.726Z,28
2022-12-06T14:18:44.546Z,27
2022-12-06T14:19:45.638Z,27
2022-12-06T14:20:46.681Z,27
2022-12-06T14:21:48.738Z,27
2022-12-06T14:22:50.551Z,27
2022-12-06T14:23:51.574Z,27
2022-12-06T14:24:52.700Z,27
2022-12-06T14:25:54.676Z,26
2022-12-06T14:26:56.675Z,26
2022-12-06T14:27:58.714Z,25
2022-12-06T14:29:00.671Z,25
2022-12-06T14:30:02.949Z,25
2022-12-06T14:31:04.801Z,25
2022-12-06T14:32:06.591Z,26
2022-12-06T14:33:08.592Z,25
2022-12-06T14:34:09.654Z,25